createdAt,value
2024-04-13T00:00:43.008Z,25.91
2024-04-13T00:01:42.995Z,25.87
2024-04-13T00:02:43.197Z,25.88
2024-04-13T00:03:43.057Z,25.87
2024-04-13T00:04:43.004Z,25.88
2024-04-13T00:05:42.970Z,25.84
2024-04-13T00:06:45.442Z,25.84
2024-04-13T00:07:42.981Z,25.84
2024-04-13T00:08:42.973Z,25.86
2024-04-13T00:09:42.977Z,25.83
2024-04-13T00:10:42.974Z,25.84
2024-04-13T00:11:42.966Z,25.83
2024-04-13T00:12:42.971Z,25.84
2024-04-13T00:13:42.970Z,25.82
2024-04-13T00:14:42.977Z,25.82
2024-04-13T00:15:42.978Z,25.85
2024-04-13T00:16:43.005Z,25.85
2024-04-13T00:17:43.012Z,25.84
2024-04-13T00:18:43.687Z,25.83
2024-04-13T00:19:43.022Z,25.83
2024-04-13T00:20:42.983Z,25.82
2024-04-13T00:21:43.013Z,25.80
2024-04-13T00:22:42.999Z,25.83
2024-04-13T00:23:42.999Z,25.82
2024-04-13T00:24:43.059Z,25.79
2024-04-13T00:25:43.016Z,25.79
2024-04-13T00:26:43.020Z,25.81
2024-04-13T00:27:43.020Z,25.83
2024-04-13T00:28:43.003Z,25.82
2024-04-13T00:29:43.036Z,25.82
2024-04-13T00:30:43.080Z,25.84
2024-04-13T00:31:43.065Z,25.86
2024-04-13T00:32:43.111Z,25.84
2024-04-13T00:33:43.017Z,25.85
2024-04-13T00:34:43.079Z,25.85
2024-04-13T00:35:43.038Z,25.86
2024-04-13T00:36:43.075Z,25.87
2024-04-13T00:37:43.061Z,25.86
2024-04-13T00:38:43.048Z,25.85
2024-04-13T00:39:43.073Z,25.83
2024-04-13T00:40:43.038Z,25.81
2024-04-13T00:41:43.045Z,25.79
2024-04-13T00:42:43.044Z,25.78
2024-04-13T00:43:43.049Z,25.77
2024-04-13T00:44:43.040Z,25.75
2024-04-13T00:45:43.074Z,25.75
2024-04-13T00:46:43.057Z,25.74
2024-04-13T00:47:43.152Z,25.72
2024-04-13T00:48:43.121Z,25.71
2024-04-13T00:49:43.067Z,25.70
2024-04-13T00:50:43.049Z,25.69
2024-04-13T00:51:43.130Z,25.69
2024-04-13T00:52:43.086Z,25.71
2024-04-13T00:53:43.057Z,25.73
2024-04-13T00:54:43.071Z,25.71
2024-04-13T00:55:43.095Z,25.70
2024-04-13T00:56:43.130Z,25.68
2024-04-13T00:57:43.188Z,25.67
2024-04-13T00:58:43.210Z,25.67
2024-04-13T00:59:43.263Z,25.67
2024-04-13T01:00:43.396Z,25.64
2024-04-13T01:01:43.378Z,25.65
2024-04-13T01:02:43.466Z,25.65
2024-04-13T01:03:43.554Z,25.65
2024-04-13T01:04:43.479Z,25.65
2024-04-13T01:05:43.521Z,25.65
2024-04-13T01:06:43.656Z,25.65
2024-04-13T01:07:43.628Z,25.62
2024-04-13T01:08:43.663Z,25.65
2024-04-13T01:09:43.708Z,25.66
2024-04-13T01:10:43.795Z,25.64
2024-04-13T01:11:43.825Z,25.61
2024-04-13T01:12:43.840Z,25.61
2024-04-13T01:13:43.902Z,25.63
2024-04-13T01:14:43.953Z,25.64
2024-04-13T01:15:43.984Z,25.61
2024-04-13T01:16:44.032Z,25.62
2024-04-13T01:17:44.097Z,25.63
2024-04-13T01:18:44.141Z,25.64
2024-04-13T01:19:44.103Z,25.62
2024-04-13T01:20:44.077Z,25.63
2024-04-13T01:21:44.189Z,25.64
2024-04-13T01:22:44.080Z,25.62
2024-04-13T01:23:44.087Z,25.62
2024-04-13T01:24:44.144Z,25.61
2024-04-13T01:25:44.085Z,25.64
2024-04-13T01:26:44.087Z,25.63
2024-04-13T01:27:44.085Z,25.63
2024-04-13T01:28:44.096Z,25.63
2024-04-13T01:29:44.088Z,25.63
2024-04-13T01:30:44.124Z,25.63
2024-04-13T01:31:44.145Z,25.62
2024-04-13T01:32:44.272Z,25.60
2024-04-13T01:33:44.284Z,25.58
2024-04-13T01:34:44.284Z,25.58
2024-04-13T01:35:44.346Z,25.59
2024-04-13T01:36:44.364Z,25.57
2024-04-13T01:37:44.423Z,25.56
2024-04-13T01:38:44.488Z,25.54
2024-04-13T01:39:44.572Z,25.55
2024-04-13T01:40:44.555Z,25.55
2024-04-13T01:41:44.585Z,25.52
2024-04-13T01:42:44.634Z,25.53
2024-04-13T01:43:44.687Z,25.51
2024-04-13T01:44:44.723Z,25.52
2024-04-13T01:45:44.816Z,25.52
2024-04-13T01:46:44.803Z,25.52
2024-04-13T01:47:44.930Z,25.52
2024-04-13T01:48:44.965Z,25.53
2024-04-13T01:49:44.923Z,25.51
2024-04-13T01:50:44.967Z,25.54
2024-04-13T01:51:45.001Z,25.52
2024-04-13T01:52:45.011Z,25.55
2024-04-13T01:53:45.025Z,25.55
2024-04-13T01:54:45.021Z,25.57
2024-04-13T01:55:45.018Z,25.58
2024-04-13T01:56:45.027Z,25.56
2024-04-13T01:57:45.051Z,25.58
2024-04-13T01:58:45.011Z,25.58
2024-04-13T01:59:45.028Z,25.57
2024-04-13T02:00:45.177Z,25.57
2024-04-13T02:01:45.050Z,25.55
2024-04-13T02:02:45.032Z,25.56
2024-04-13T02:03:45.125Z,25.55
2024-04-13T02:04:45.067Z,25.56
2024-04-13T02:05:45.098Z,25.55
2024-04-13T02:06:45.193Z,25.54
2024-04-13T02:07:45.208Z,25.55
2024-04-13T02:08:45.253Z,25.55
2024-04-13T02:09:45.329Z,25.57
2024-04-13T02:10:45.396Z,25.57
2024-04-13T02:11:45.415Z,25.58
2024-04-13T02:12:45.462Z,25.60
2024-04-13T02:13:45.522Z,25.61
2024-04-13T02:14:45.605Z,25.63
2024-04-13T02:15:45.693Z,25.64
2024-04-13T02:16:45.701Z,25.64
2024-04-13T02:17:45.829Z,25.61
2024-04-13T02:18:45.856Z,25.59
2024-04-13T02:19:45.872Z,25.58
2024-04-13T02:20:45.924Z,25.58
2024-04-13T02:21:45.987Z,25.58
2024-04-13T02:22:46.067Z,25.61
2024-04-13T02:23:46.123Z,25.60
2024-04-13T02:24:46.187Z,25.61
2024-04-13T02:25:46.236Z,25.60
2024-04-13T02:26:46.294Z,25.62
2024-04-13T02:27:46.373Z,25.62
2024-04-13T02:28:46.405Z,25.60
2024-04-13T02:29:46.479Z,25.58
2024-04-13T02:30:46.533Z,25.62
2024-04-13T02:31:46.589Z,25.62
2024-04-13T02:32:46.742Z,25.60
2024-04-13T02:33:46.738Z,25.60
2024-04-13T02:34:46.748Z,25.64
2024-04-13T02:35:46.812Z,25.59
2024-04-13T02:36:46.865Z,25.60
2024-04-13T02:37:46.927Z,25.60
2024-04-13T02:38:46.991Z,25.61
2024-04-13T02:39:47.087Z,25.63
2024-04-13T02:40:47.093Z,25.62
2024-04-13T02:41:47.176Z,25.63
2024-04-13T02:42:47.235Z,25.62
2024-04-13T02:43:47.289Z,25.63
2024-04-13T02:44:47.340Z,25.64
2024-04-13T02:45:47.407Z,25.61
2024-04-13T02:46:47.468Z,25.58
2024-04-13T02:47:47.596Z,25.58
2024-04-13T02:48:47.644Z,25.56
2024-04-13T02:49:47.639Z,25.55
2024-04-13T02:50:47.692Z,25.53
2024-04-13T02:51:47.777Z,25.53
2024-04-13T02:52:47.794Z,25.54
2024-04-13T02:53:47.856Z,25.55
2024-04-13T02:54:47.927Z,25.56
2024-04-13T02:55:47.948Z,25.55
2024-04-13T02:56:47.998Z,25.55
2024-04-13T02:57:48.057Z,25.52
2024-04-13T02:58:48.107Z,25.53
2024-04-13T02:59:48.182Z,25.54
2024-04-13T03:00:48.312Z,25.54
2024-04-13T03:01:48.294Z,25.56
2024-04-13T03:02:48.392Z,25.56
2024-04-13T03:03:48.459Z,25.57
2024-04-13T03:04:48.476Z,25.60
2024-04-13T03:05:48.548Z,25.59
2024-04-13T03:06:48.623Z,25.60
2024-04-13T03:07:48.662Z,25.63
2024-04-13T03:08:48.738Z,25.63
2024-04-13T03:09:48.805Z,25.62
2024-04-13T03:10:48.867Z,25.62
2024-04-13T03:11:49.006Z,25.63
2024-04-13T03:12:49.020Z,25.62
2024-04-13T03:13:49.085Z,25.63
2024-04-13T03:14:49.169Z,25.63
2024-04-13T03:15:49.279Z,25.61
2024-04-13T03:16:49.345Z,25.62
2024-04-13T03:17:49.386Z,25.59
2024-04-13T03:18:49.508Z,25.57
2024-04-13T03:19:49.551Z,25.56
2024-04-13T03:20:49.591Z,25.54
2024-04-13T03:21:49.728Z,25.52
2024-04-13T03:22:49.718Z,25.48
2024-04-13T03:23:49.828Z,25.45
2024-04-13T03:24:49.882Z,25.47
2024-04-13T03:25:49.945Z,25.49
2024-04-13T03:26:50.034Z,25.49
2024-04-13T03:27:50.092Z,25.53
2024-04-13T03:28:50.155Z,25.56
2024-04-13T03:29:50.218Z,25.54
2024-04-13T03:30:50.273Z,25.56
2024-04-13T03:31:50.389Z,25.57
2024-04-13T03:32:50.416Z,25.57
2024-04-13T03:33:50.498Z,25.56
2024-04-13T03:34:50.475Z,25.60
2024-04-13T03:35:50.524Z,25.61
2024-04-13T03:36:50.565Z,25.61
2024-04-13T03:37:50.595Z,25.65
2024-04-13T03:38:50.652Z,25.64
2024-04-13T03:39:50.654Z,25.67
2024-04-13T03:40:50.638Z,25.66
2024-04-13T03:41:50.654Z,25.70
2024-04-13T03:42:50.672Z,25.72
2024-04-13T03:43:50.684Z,25.73
2024-04-13T03:44:50.685Z,25.72
2024-04-13T03:45:50.665Z,25.75
2024-04-13T03:46:50.683Z,25.71
2024-04-13T03:47:50.712Z,25.73
2024-04-13T03:48:50.755Z,25.70
2024-04-13T03:49:50.739Z,25.70
2024-04-13T03:50:50.710Z,25.70
2024-04-13T03:51:50.740Z,25.68
2024-04-13T03:52:50.759Z,25.68
2024-04-13T03:53:50.756Z,25.68
2024-04-13T03:54:50.779Z,25.71
2024-04-13T03:55:50.787Z,25.72
2024-04-13T03:56:50.819Z,25.73
2024-04-13T03:57:50.867Z,25.74
2024-04-13T03:58:50.846Z,25.71
2024-04-13T03:59:50.862Z,25.71
2024-04-13T04:00:50.993Z,25.70
2024-04-13T04:01:50.880Z,25.71
2024-04-13T04:02:50.896Z,25.72
2024-04-13T04:03:50.975Z,25.73
2024-04-13T04:04:50.917Z,25.72
2024-04-13T04:05:50.910Z,25.71
2024-04-13T04:06:50.999Z,25.74
2024-04-13T04:07:50.944Z,25.74
2024-04-13T04:08:50.924Z,25.76
2024-04-13T04:09:50.914Z,25.79
2024-04-13T04:10:50.925Z,25.87
2024-04-13T04:11:50.925Z,25.87
2024-04-13T04:12:50.963Z,25.87
2024-04-13T04:13:50.917Z,25.86
2024-04-13T04:14:50.945Z,25.85
2024-04-13T04:15:50.935Z,25.86
2024-04-13T04:16:50.936Z,25.87
2024-04-13T04:17:50.972Z,25.87
2024-04-13T04:18:51.124Z,25.89
2024-04-13T04:19:50.934Z,25.90
2024-04-13T04:20:50.970Z,25.90
2024-04-13T04:21:50.960Z,25.89
2024-04-13T04:22:50.954Z,25.92
2024-04-13T04:23:50.953Z,25.92
2024-04-13T04:24:50.967Z,25.92
2024-04-13T04:25:50.950Z,25.92
2024-04-13T04:26:50.964Z,25.90
2024-04-13T04:27:50.975Z,25.89
2024-04-13T04:28:50.958Z,25.91
2024-04-13T04:29:50.979Z,25.92
2024-04-13T04:30:51.096Z,25.93
2024-04-13T04:31:50.977Z,25.91
2024-04-13T04:32:51.077Z,25.92
2024-04-13T04:33:51.053Z,25.93
2024-04-13T04:34:50.983Z,25.95
2024-04-13T04:35:50.988Z,25.99
2024-04-13T04:36:50.990Z,25.99
2024-04-13T04:37:50.995Z,25.99
2024-04-13T04:38:58.289Z,26.04
2024-04-13T04:39:58.287Z,26.01
2024-04-13T04:40:58.285Z,25.99
2024-04-13T04:41:58.282Z,25.98
2024-04-13T04:42:58.311Z,25.95
2024-04-13T04:43:58.272Z,25.94
2024-04-13T04:44:58.306Z,25.94
2024-04-13T04:45:58.269Z,25.95
2024-04-13T04:46:58.291Z,25.97
2024-04-13T04:47:58.359Z,25.96
2024-04-13T04:48:58.323Z,25.97
2024-04-13T04:49:58.279Z,25.98
2024-04-13T04:50:58.314Z,25.99
2024-04-13T04:51:58.278Z,25.98
2024-04-13T04:52:58.299Z,26.00
2024-04-13T04:53:58.297Z,26.02
2024-04-13T04:54:58.300Z,26.02
2024-04-13T04:55:58.293Z,26.02
2024-04-13T04:56:58.292Z,26.03
2024-04-13T04:57:58.297Z,26.04
2024-04-13T04:58:58.310Z,26.04
2024-04-13T04:59:58.295Z,26.08
2024-04-13T05:00:58.441Z,26.10
2024-04-13T05:02:00.066Z,26.09
2024-04-13T05:02:58.298Z,26.13
2024-04-13T05:03:58.436Z,26.14
2024-04-13T05:04:58.301Z,26.14
2024-04-13T05:05:58.296Z,26.13
2024-04-13T05:06:58.302Z,26.15
2024-04-13T05:07:59.905Z,26.14
2024-04-13T05:08:58.316Z,26.16
2024-04-13T05:09:58.313Z,26.13
2024-04-13T05:10:58.321Z,26.16
2024-04-13T05:11:58.319Z,26.14
2024-04-13T05:12:58.349Z,26.14
2024-04-13T05:13:58.317Z,26.12
2024-04-13T05:14:58.316Z,26.13
2024-04-13T05:15:58.326Z,26.13
2024-04-13T05:16:58.327Z,26.13
2024-04-13T05:17:58.406Z,26.17
2024-04-13T05:18:58.387Z,26.20
2024-04-13T05:19:58.330Z,26.18
2024-04-13T05:20:58.357Z,26.22
2024-04-13T05:21:58.341Z,26.23
2024-04-13T05:22:58.340Z,26.26
2024-04-13T05:23:58.339Z,26.29
2024-04-13T05:24:58.334Z,26.30
2024-04-13T05:25:58.340Z,26.31
2024-04-13T05:26:58.344Z,26.33
2024-04-13T05:27:58.345Z,26.31
2024-04-13T05:28:58.353Z,26.33
2024-04-13T05:29:58.355Z,26.31
2024-04-13T05:30:58.665Z,26.34
2024-04-13T05:31:58.349Z,26.30
2024-04-13T05:32:58.406Z,26.28
2024-04-13T05:33:58.392Z,26.28
2024-04-13T05:34:58.355Z,26.29
2024-04-13T05:36:00.161Z,26.32
2024-04-13T05:36:58.384Z,26.30
2024-04-13T05:37:58.359Z,26.30
2024-04-13T05:38:58.369Z,26.29
2024-04-13T05:39:58.373Z,26.35
2024-04-13T05:40:58.403Z,26.36
2024-04-13T05:41:58.393Z,26.41
2024-04-13T05:42:58.369Z,26.44
2024-04-13T05:43:58.368Z,26.47
2024-04-13T05:44:58.378Z,26.49
2024-04-13T05:45:58.414Z,26.52
2024-04-13T05:46:58.461Z,26.56
2024-04-13T05:47:58.406Z,26.57
2024-04-13T05:48:58.379Z,26.59
2024-04-13T05:49:58.381Z,26.64
2024-04-13T05:51:00.081Z,26.68
2024-04-13T05:51:58.386Z,26.68
2024-04-13T05:52:58.386Z,26.71
2024-04-13T05:53:58.387Z,26.71
2024-04-13T05:54:58.393Z,26.74
2024-04-13T05:55:58.396Z,26.79
2024-04-13T05:56:58.386Z,26.79
2024-04-13T05:57:58.398Z,26.78
2024-04-13T05:58:58.396Z,26.79
2024-04-13T05:59:58.387Z,26.82
2024-04-13T06:00:58.698Z,26.83
2024-04-13T06:01:58.413Z,26.84
2024-04-13T06:02:58.457Z,26.87
2024-04-13T06:03:58.452Z,26.86
2024-04-13T06:04:58.387Z,26.87
2024-04-13T06:05:58.395Z,26.89
2024-04-13T06:06:58.417Z,26.92
2024-04-13T06:07:58.417Z,26.95
2024-04-13T06:08:58.399Z,26.99
2024-04-13T06:09:58.415Z,26.96
2024-04-13T06:10:58.456Z,26.98
2024-04-13T06:11:58.504Z,26.98
2024-04-13T06:12:58.486Z,26.98
2024-04-13T06:13:58.508Z,26.96
2024-04-13T06:14:58.560Z,27.00
2024-04-13T06:15:58.594Z,27.01
2024-04-13T06:16:58.640Z,27.02
2024-04-13T06:17:58.845Z,27.01
2024-04-13T06:19:01.255Z,27.02
2024-04-13T06:19:58.723Z,27.05
2024-04-13T06:20:58.727Z,27.07
2024-04-13T06:21:58.702Z,27.11
2024-04-13T06:22:58.693Z,27.13
2024-04-13T06:23:58.711Z,27.15
2024-04-13T06:24:58.689Z,27.17
2024-04-13T06:25:58.696Z,27.19
2024-04-13T06:26:58.700Z,27.21
2024-04-13T06:27:58.741Z,27.25
2024-04-13T06:28:58.703Z,27.27
2024-04-13T06:29:58.711Z,27.30
2024-04-13T06:30:58.764Z,27.32
2024-04-13T06:31:58.711Z,27.33
2024-04-13T06:32:58.781Z,27.35
2024-04-13T06:33:58.815Z,27.37
2024-04-13T06:34:58.735Z,27.41
2024-04-13T06:35:59.436Z,27.41
2024-04-13T06:36:58.730Z,27.42
2024-04-13T06:37:58.737Z,27.43
2024-04-13T06:38:58.762Z,27.46
2024-04-13T06:39:58.743Z,27.45
2024-04-13T06:40:58.780Z,27.51
2024-04-13T06:41:58.754Z,27.50
2024-04-13T06:42:58.738Z,27.54
2024-04-13T06:43:58.743Z,27.55
2024-04-13T06:44:58.752Z,27.57
2024-04-13T06:45:58.783Z,27.62
2024-04-13T06:46:58.758Z,27.62
2024-04-13T06:47:58.821Z,27.61
2024-04-13T06:48:58.765Z,27.58
2024-04-13T06:49:58.758Z,27.56
2024-04-13T06:50:58.775Z,27.58
2024-04-13T06:51:58.745Z,27.58
2024-04-13T06:52:58.745Z,27.55
2024-04-13T06:53:58.769Z,27.61
2024-04-13T06:54:58.809Z,27.64
2024-04-13T06:55:58.835Z,27.65
2024-04-13T06:56:58.871Z,27.63
2024-04-13T06:57:58.895Z,27.66
2024-04-13T06:58:58.926Z,27.62
2024-04-13T06:59:59.734Z,27.66
2024-04-13T07:00:59.313Z,27.74
2024-04-13T07:01:59.018Z,27.75
2024-04-13T07:02:59.073Z,27.79
2024-04-13T07:03:59.102Z,27.82
2024-04-13T07:04:59.185Z,27.82
2024-04-13T07:05:59.180Z,27.81
2024-04-13T07:06:59.150Z,27.85
2024-04-13T07:07:59.159Z,28.03
2024-04-13T07:08:59.189Z,28.10
2024-04-13T07:09:59.226Z,28.17
2024-04-13T07:10:59.350Z,28.15
2024-04-13T07:11:59.249Z,28.21
2024-04-13T07:12:59.255Z,28.31
2024-04-13T07:13:59.239Z,28.49
2024-04-13T07:14:59.243Z,28.63
2024-04-13T07:15:59.284Z,28.75
2024-04-13T07:16:59.247Z,28.89
2024-04-13T07:17:59.271Z,28.91
2024-04-13T07:18:59.314Z,29.07
2024-04-13T07:19:59.274Z,29.11
2024-04-13T07:20:59.240Z,29.16
2024-04-13T07:21:59.240Z,29.17
2024-04-13T07:22:59.234Z,29.18
2024-04-13T07:23:59.255Z,29.23
2024-04-13T07:24:59.247Z,29.34
2024-04-13T07:25:59.268Z,29.34
2024-04-13T07:26:59.249Z,29.39
2024-04-13T07:27:59.252Z,29.32
2024-04-13T07:28:59.257Z,29.34
2024-04-13T07:29:59.245Z,29.38
2024-04-13T07:30:59.463Z,29.40
2024-04-13T07:31:59.296Z,29.44
2024-04-13T07:32:59.344Z,29.54
2024-04-13T07:33:59.260Z,29.56
2024-04-13T07:34:59.247Z,29.58
2024-04-13T07:35:59.246Z,29.58
2024-04-13T07:36:59.280Z,29.59
2024-04-13T07:37:59.246Z,29.53
2024-04-13T07:38:59.304Z,29.58
2024-04-13T07:39:59.252Z,29.54
2024-04-13T07:40:59.304Z,29.50
2024-04-13T07:41:59.307Z,29.45
2024-04-13T07:42:59.280Z,29.44
2024-04-13T07:43:59.330Z,29.41
2024-04-13T07:44:59.316Z,29.42
2024-04-13T07:45:59.351Z,29.41
2024-04-13T07:46:59.325Z,29.38
2024-04-13T07:47:59.431Z,29.38
2024-04-13T07:48:59.407Z,29.38
2024-04-13T07:49:59.329Z,29.36
2024-04-13T07:51:02.631Z,29.36
2024-04-13T07:51:59.351Z,29.42
2024-04-13T07:52:59.348Z,29.39
2024-04-13T07:53:59.364Z,29.37
2024-04-13T07:54:59.326Z,29.33
2024-04-13T07:55:59.343Z,29.29
2024-04-13T07:56:59.338Z,29.29
2024-04-13T07:57:59.330Z,29.36
2024-04-13T07:58:59.357Z,29.45
2024-04-13T07:59:59.394Z,29.47
2024-04-13T08:00:59.514Z,29.48
2024-04-13T08:01:59.342Z,29.44
2024-04-13T08:02:59.375Z,29.43
2024-04-13T08:03:59.414Z,29.36
2024-04-13T08:04:59.403Z,29.23
2024-04-13T08:05:59.365Z,29.14
2024-04-13T08:06:59.350Z,29.05
2024-04-13T08:07:59.359Z,29.02
2024-04-13T08:08:59.351Z,28.96
2024-04-13T08:09:59.394Z,28.81
2024-04-13T08:10:59.402Z,28.74
2024-04-13T08:11:59.360Z,28.58
2024-04-13T08:12:59.470Z,28.45
2024-04-13T08:13:59.372Z,28.44
2024-04-13T08:14:59.366Z,28.40
2024-04-13T08:15:59.387Z,28.37
2024-04-13T08:16:59.412Z,28.34
2024-04-13T08:17:59.395Z,28.33
2024-04-13T08:18:59.372Z,28.38
2024-04-13T08:19:59.374Z,28.34
2024-04-13T08:20:59.379Z,28.30
2024-04-13T08:21:59.388Z,28.23
2024-04-13T08:22:59.382Z,28.29
2024-04-13T08:23:59.487Z,28.36
2024-04-13T08:24:59.487Z,28.31
2024-04-13T08:25:59.563Z,28.38
2024-04-13T08:26:59.623Z,28.36
2024-04-13T08:27:59.692Z,28.46
2024-04-13T08:28:59.726Z,28.39
2024-04-13T08:29:59.768Z,28.38
2024-04-13T08:30:59.861Z,28.29
2024-04-13T08:31:59.846Z,28.15
2024-04-13T08:33:00.740Z,28.09
2024-04-13T08:33:59.976Z,28.03
2024-04-13T08:34:59.969Z,27.93
2024-04-13T08:36:00.496Z,27.86
2024-04-13T08:37:00.046Z,27.67
2024-04-13T08:38:00.097Z,27.60
2024-04-13T08:39:00.141Z,27.52
2024-04-13T08:40:00.230Z,27.54
2024-04-13T08:41:00.185Z,27.49
2024-04-13T08:42:00.211Z,27.45
2024-04-13T08:43:00.243Z,27.45
2024-04-13T08:44:00.254Z,27.48
2024-04-13T08:45:00.343Z,27.43
2024-04-13T08:46:00.256Z,27.48
2024-04-13T08:47:00.255Z,27.46
2024-04-13T08:48:00.347Z,27.48
2024-04-13T08:49:00.507Z,27.45
2024-04-13T08:50:00.367Z,27.43
2024-04-13T08:51:00.270Z,27.46
2024-04-13T08:52:00.259Z,27.45
2024-04-13T08:53:00.339Z,27.49
2024-04-13T08:54:00.263Z,27.51
2024-04-13T08:55:00.298Z,27.51
2024-04-13T08:56:00.272Z,27.48
2024-04-13T08:57:00.346Z,27.45
2024-04-13T08:58:00.275Z,27.38
2024-04-13T08:59:00.266Z,27.33
2024-04-13T09:00:00.280Z,27.25
2024-04-13T09:01:00.360Z,27.13
2024-04-13T09:02:00.327Z,26.99
2024-04-13T09:03:00.315Z,26.93
2024-04-13T09:04:00.433Z,26.84
2024-04-13T09:05:00.280Z,26.74
2024-04-13T09:06:00.313Z,26.66
2024-04-13T09:07:00.277Z,26.56
2024-04-13T09:08:00.310Z,26.52
2024-04-13T09:09:00.288Z,26.43
2024-04-13T09:10:00.324Z,26.37
2024-04-13T09:11:00.441Z,26.28
2024-04-13T09:12:00.318Z,26.21
2024-04-13T09:13:00.439Z,26.15
2024-04-13T09:14:00.396Z,26.12
2024-04-13T09:15:00.379Z,26.01
2024-04-13T09:16:00.316Z,25.93
2024-04-13T09:17:00.342Z,25.70
2024-04-13T09:18:00.378Z,25.64
2024-04-13T09:19:00.452Z,25.65
2024-04-13T09:20:00.329Z,25.60
2024-04-13T09:21:00.334Z,25.46
2024-04-13T09:22:00.316Z,25.44
2024-04-13T09:23:00.318Z,25.42
2024-04-13T09:24:00.320Z,25.39
2024-04-13T09:25:00.423Z,25.40
2024-04-13T09:26:00.371Z,25.34
2024-04-13T09:27:00.399Z,25.28
2024-04-13T09:28:00.491Z,25.25
2024-04-13T09:29:00.536Z,25.30
2024-04-13T09:30:00.656Z,25.25
2024-04-13T09:31:00.711Z,25.20
2024-04-13T09:32:00.746Z,25.14
2024-04-13T09:33:00.760Z,25.03
2024-04-13T09:34:00.742Z,24.96
2024-04-13T09:35:00.697Z,24.93
2024-04-13T09:36:00.694Z,24.76
2024-04-13T09:37:00.724Z,24.74
2024-04-13T09:38:00.702Z,24.69
2024-04-13T09:39:00.718Z,24.70
2024-04-13T09:40:00.727Z,24.59
2024-04-13T09:41:00.779Z,24.46
2024-04-13T09:42:00.865Z,24.39
2024-04-13T09:43:00.956Z,24.53
2024-04-13T09:44:00.987Z,24.54
2024-04-13T09:45:01.045Z,24.43
2024-04-13T09:46:01.106Z,24.37
2024-04-13T09:47:01.170Z,24.27
2024-04-13T09:48:01.487Z,24.29
2024-04-13T09:49:01.463Z,24.26
2024-04-13T09:50:01.367Z,24.28
2024-04-13T09:51:01.414Z,24.30
2024-04-13T09:52:01.498Z,24.31
2024-04-13T09:53:01.542Z,24.20
2024-04-13T09:54:01.610Z,24.15
2024-04-13T09:55:01.707Z,24.11
2024-04-13T09:56:02.054Z,24.09
2024-04-13T09:57:01.753Z,24.06
2024-04-13T09:58:01.808Z,24.07
2024-04-13T09:59:01.877Z,24.04
2024-04-13T10:00:03.405Z,23.97
2024-04-13T10:01:02.088Z,23.98
2024-04-13T10:02:02.079Z,23.92
2024-04-13T10:03:01.986Z,23.94
2024-04-13T10:04:02.059Z,23.94
2024-04-13T10:05:01.959Z,23.91
2024-04-13T10:06:01.990Z,23.91
2024-04-13T10:07:02.591Z,23.90
2024-04-13T10:08:01.925Z,23.89
2024-04-13T10:09:01.933Z,23.82
2024-04-13T10:10:01.939Z,23.85
2024-04-13T10:11:02.023Z,23.85
2024-04-13T10:12:01.920Z,23.87
2024-04-13T10:13:02.818Z,23.87
2024-04-13T10:14:01.979Z,23.63
2024-04-13T10:15:01.934Z,23.61
2024-04-13T10:16:01.935Z,23.61
2024-04-13T10:17:01.971Z,23.48
2024-04-13T10:18:02.038Z,23.40
2024-04-13T10:19:02.005Z,23.26
2024-04-13T10:20:02.004Z,23.31
2024-04-13T10:21:01.938Z,23.29
2024-04-13T10:22:01.946Z,23.30
2024-04-13T10:23:01.937Z,23.32
2024-04-13T10:24:01.963Z,23.38
2024-04-13T10:25:02.052Z,23.27
2024-04-13T10:26:01.961Z,23.13
2024-04-13T10:27:01.960Z,23.10
2024-04-13T10:28:01.966Z,22.96
2024-04-13T10:29:01.952Z,22.90
2024-04-13T10:30:01.951Z,22.78
2024-04-13T10:31:01.977Z,22.94
2024-04-13T10:32:02.045Z,22.95
2024-04-13T10:33:02.008Z,23.07
2024-04-13T10:34:01.975Z,23.06
2024-04-13T10:35:01.953Z,22.96
2024-04-13T10:36:01.971Z,22.83
2024-04-13T10:37:02.027Z,22.52
2024-04-13T10:38:02.030Z,22.49
2024-04-13T10:39:02.058Z,22.58
2024-04-13T10:40:02.084Z,22.53
2024-04-13T10:41:02.138Z,22.39
2024-04-13T10:42:02.132Z,22.24
2024-04-13T10:43:02.234Z,22.17
2024-04-13T10:44:02.234Z,22.12
2024-04-13T10:45:02.244Z,22.16
2024-04-13T10:46:02.444Z,22.20
2024-04-13T10:47:02.316Z,21.96
2024-04-13T10:48:02.462Z,21.82
2024-04-13T10:49:02.417Z,21.80
2024-04-13T10:50:06.313Z,21.79
2024-04-13T10:51:02.428Z,21.91
2024-04-13T10:52:02.412Z,22.16
2024-04-13T10:53:02.418Z,22.19
2024-04-13T10:54:02.411Z,22.19
2024-04-13T10:55:04.062Z,22.20
2024-04-13T10:56:02.465Z,22.21
2024-04-13T10:57:09.675Z,22.22
2024-04-13T10:58:03.466Z,22.24
2024-04-13T10:59:02.431Z,22.22
2024-04-13T11:00:02.433Z,22.14
2024-04-13T11:01:02.560Z,21.84
2024-04-13T11:02:02.493Z,21.70
2024-04-13T11:03:02.452Z,21.76
2024-04-13T11:04:02.476Z,21.68
2024-04-13T11:05:02.431Z,21.85
2024-04-13T11:06:02.446Z,21.54
2024-04-13T11:07:02.472Z,21.44
2024-04-13T11:08:02.451Z,21.42
2024-04-13T11:09:02.468Z,21.40
2024-04-13T11:10:02.443Z,21.56
2024-04-13T11:11:02.556Z,21.60
2024-04-13T11:12:02.508Z,21.68
2024-04-13T11:13:02.478Z,21.59
2024-04-13T11:14:02.456Z,21.68
2024-04-13T11:15:02.463Z,21.67
2024-04-13T11:16:02.535Z,21.68
2024-04-13T11:17:02.526Z,21.72
2024-04-13T11:18:02.599Z,21.62
2024-04-13T11:19:02.609Z,21.70
2024-04-13T11:20:02.465Z,21.71
2024-04-13T11:21:02.583Z,21.66
2024-04-13T11:22:02.482Z,21.67
2024-04-13T11:23:02.492Z,21.62
2024-04-13T11:24:02.479Z,21.54
2024-04-13T11:25:02.507Z,21.52
2024-04-13T11:26:02.480Z,21.52
2024-04-13T11:27:02.492Z,21.52
2024-04-13T11:28:02.500Z,21.64
2024-04-13T11:29:02.498Z,21.62
2024-04-13T11:30:02.496Z,21.56
2024-04-13T11:31:02.527Z,21.63
2024-04-13T11:32:02.620Z,21.59
2024-04-13T11:33:02.539Z,21.62
2024-04-13T11:34:02.503Z,21.56
2024-04-13T11:35:02.492Z,21.36
2024-04-13T11:36:02.503Z,21.36
2024-04-13T11:37:02.523Z,21.40
2024-04-13T11:38:02.522Z,21.51
2024-04-13T11:39:02.532Z,21.39
2024-04-13T11:40:02.567Z,21.09
2024-04-13T11:41:02.626Z,21.40
2024-04-13T11:42:02.631Z,21.09
2024-04-13T11:43:02.793Z,21.25
2024-04-13T11:44:02.722Z,21.12
2024-04-13T11:45:02.702Z,21.03
2024-04-13T11:46:02.874Z,21.00
2024-04-13T11:47:02.762Z,20.97
2024-04-13T11:48:02.824Z,21.02
2024-04-13T11:49:02.864Z,21.09
2024-04-13T11:50:02.815Z,21.18
2024-04-13T11:51:04.115Z,21.22
2024-04-13T11:52:02.871Z,21.27
2024-04-13T11:53:02.861Z,21.21
2024-04-13T11:54:02.860Z,21.25
2024-04-13T11:55:02.885Z,21.29
2024-04-13T11:56:02.894Z,21.23
2024-04-13T11:57:02.862Z,21.05
2024-04-13T11:58:02.859Z,21.05
2024-04-13T11:59:02.878Z,21.15
2024-04-13T12:00:02.894Z,21.04
2024-04-13T12:01:02.998Z,21.17
2024-04-13T12:02:02.882Z,21.10
2024-04-13T12:03:03.010Z,21.06
2024-04-13T12:04:02.931Z,21.05
2024-04-13T12:05:02.954Z,21.13
2024-04-13T12:06:02.885Z,21.13
2024-04-13T12:07:02.919Z,21.11
2024-04-13T12:08:02.883Z,21.14
2024-04-13T12:09:02.889Z,21.16
2024-04-13T12:10:02.958Z,21.18
2024-04-13T12:11:02.929Z,21.21
2024-04-13T12:12:04.459Z,21.14
2024-04-13T12:13:03.085Z,21.15
2024-04-13T12:14:03.072Z,21.14
2024-04-13T12:15:03.077Z,21.12
2024-04-13T12:16:03.159Z,21.13
2024-04-13T12:17:03.120Z,20.77
2024-04-13T12:18:03.256Z,20.76
2024-04-13T12:19:03.181Z,20.76
2024-04-13T12:20:03.155Z,20.82
2024-04-13T12:21:03.168Z,20.91
2024-04-13T12:22:03.182Z,20.89
2024-04-13T12:23:03.191Z,20.88
2024-04-13T12:24:03.206Z,20.91
2024-04-13T12:25:03.226Z,20.93
2024-04-13T12:26:03.251Z,20.93
2024-04-13T12:27:03.227Z,20.59
2024-04-13T12:28:03.215Z,20.77
2024-04-13T12:29:03.223Z,20.66
2024-04-13T12:30:03.209Z,20.60
2024-04-13T12:31:03.226Z,20.56
2024-04-13T12:32:03.240Z,20.69
2024-04-13T12:33:03.305Z,20.71
2024-04-13T12:34:03.254Z,20.68
2024-04-13T12:35:03.222Z,20.65
2024-04-13T12:36:03.274Z,20.59
2024-04-13T12:37:03.232Z,20.65
2024-04-13T12:38:03.237Z,20.67
2024-04-13T12:39:03.259Z,20.66
2024-04-13T12:40:03.321Z,20.68
2024-04-13T12:41:03.228Z,20.62
2024-04-13T12:42:03.266Z,20.49
2024-04-13T12:43:03.245Z,20.53
2024-04-13T12:44:03.244Z,20.60
2024-04-13T12:45:03.245Z,20.60
2024-04-13T12:46:03.234Z,20.56
2024-04-13T12:47:03.258Z,20.62
2024-04-13T12:48:03.319Z,20.55
2024-04-13T12:49:03.351Z,20.52
2024-04-13T12:50:03.253Z,20.54
2024-04-13T12:51:03.281Z,20.40
2024-04-13T12:52:03.242Z,20.49
2024-04-13T12:53:03.290Z,20.46